createdAt,value
2023-03-11T00:00:48.778Z,8.20
2023-03-11T00:03:29.078Z,8.22
2023-03-11T00:06:00.342Z,8.19
2023-03-11T00:08:31.523Z,8.19
2023-03-11T00:11:00.684Z,8.20
2023-03-11T00:13:30.252Z,8.19
2023-03-11T00:15:59.782Z,8.20
2023-03-11T00:18:31.346Z,8.19
2023-03-11T00:21:01.001Z,8.18
2023-03-11T00:23:29.675Z,8.22
2023-03-11T00:25:59.734Z,8.24
2023-03-11T00:28:27.900Z,8.23
2023-03-11T00:30:55.874Z,8.19
2023-03-11T00:33:24.988Z,8.08
2023-03-11T00:35:53.037Z,7.98
2023-03-11T00:38:21.439Z,8.00
2023-03-11T00:40:49.718Z,8.06
2023-03-11T00:43:18.714Z,8.11
2023-03-11T00:45:46.731Z,8.14
2023-03-11T00:48:15.203Z,8.09
2023-03-11T00:50:44.234Z,8.10
2023-03-11T00:53:12.761Z,8.13
2023-03-11T00:55:41.277Z,8.14
2023-03-11T00:58:12.724Z,8.14
2023-03-11T01:00:44.309Z,8.16
2023-03-11T01:03:12.260Z,8.18
2023-03-11T01:05:40.496Z,8.20
2023-03-11T01:08:08.391Z,8.21
2023-03-11T01:10:38.557Z,8.21
2023-03-11T01:13:06.458Z,8.20
2023-03-11T01:15:37.289Z,8.06
2023-03-11T01:18:06.849Z,8.17
2023-03-11T01:20:38.052Z,8.12
2023-03-11T01:23:07.695Z,8.06
2023-03-11T01:25:36.537Z,8.10
2023-03-11T01:28:06.441Z,8.14
2023-03-11T01:30:38.077Z,8.16
2023-03-11T01:33:08.128Z,8.17
2023-03-11T01:35:36.215Z,8.19
2023-03-11T01:38:04.654Z,8.15
2023-03-11T01:40:40.397Z,8.15
2023-03-11T01:43:45.424Z,8.10
2023-03-11T01:46:16.564Z,8.07
2023-03-11T01:48:53.654Z,8.04
2023-03-11T01:51:38.364Z,7.96
2023-03-11T01:54:20.171Z,7.95
2023-03-11T01:56:50.484Z,7.94
2023-03-11T01:59:24.245Z,7.91
2023-03-11T02:02:01.064Z,7.94
2023-03-11T02:04:29.313Z,7.92
2023-03-11T02:06:57.319Z,7.90
2023-03-11T02:09:26.977Z,7.92
2023-03-11T02:11:56.680Z,7.92
2023-03-11T02:14:27.279Z,7.95
2023-03-11T02:16:57.694Z,7.92
2023-03-11T02:19:41.235Z,7.92
2023-03-11T02:22:11.679Z,7.96
2023-03-11T02:24:55.334Z,7.96
2023-03-11T02:27:25.050Z,7.97
2023-03-11T02:29:56.726Z,8.00
2023-03-11T02:32:25.374Z,7.96
2023-03-11T02:34:53.321Z,7.87
2023-03-11T02:37:21.345Z,7.89
2023-03-11T02:39:55.668Z,7.92
2023-03-11T02:42:28.482Z,7.97
2023-03-11T02:45:12.218Z,7.96
2023-03-11T02:47:40.971Z,7.82
2023-03-11T02:50:15.363Z,7.78
2023-03-11T02:52:43.754Z,7.74
2023-03-11T02:55:11.980Z,7.31
2023-03-11T02:57:40.833Z,7.10
2023-03-11T03:00:11.158Z,6.82
2023-03-11T03:02:39.400Z,6.40
2023-03-11T03:05:08.520Z,6.27
2023-03-11T03:07:36.864Z,6.12
2023-03-11T03:10:08.247Z,6.15
2023-03-11T03:12:37.139Z,6.05
2023-03-11T03:15:05.979Z,5.54
2023-03-11T03:17:34.138Z,5.36
2023-03-11T03:20:03.024Z,5.12
2023-03-11T03:22:31.160Z,5.01
2023-03-11T03:24:59.209Z,4.85
2023-03-11T03:27:27.541Z,4.49
2023-03-11T03:29:55.527Z,4.28
2023-03-11T03:32:23.745Z,4.28
2023-03-11T03:34:58.329Z,4.24
2023-03-11T03:37:37.328Z,4.13
2023-03-11T03:40:07.831Z,4.05
2023-03-11T03:42:37.934Z,3.90
2023-03-11T03:45:09.420Z,3.87
2023-03-11T03:47:37.668Z,3.79
2023-03-11T03:50:09.683Z,3.43
2023-03-11T03:52:39.641Z,3.19
2023-03-11T03:55:08.658Z,3.26
2023-03-11T03:57:36.585Z,3.27
2023-03-11T04:00:09.977Z,3.19
2023-03-11T04:02:44.927Z,3.27
2023-03-11T04:05:26.760Z,2.97
2023-03-11T04:07:55.311Z,3.00
2023-03-11T04:10:23.846Z,3.00
2023-03-11T04:12:52.581Z,2.86
2023-03-11T04:15:21.080Z,2.75
2023-03-11T04:17:49.454Z,2.76
2023-03-11T04:20:18.642Z,2.79
2023-03-11T04:22:48.587Z,2.63
2023-03-11T04:25:17.652Z,2.49
2023-03-11T04:27:49.870Z,2.46
2023-03-11T04:30:18.596Z,2.42
2023-03-11T04:32:47.054Z,2.43
2023-03-11T04:35:16.440Z,2.41
2023-03-11T04:37:45.549Z,2.28
2023-03-11T04:40:14.976Z,2.22
2023-03-11T04:42:43.059Z,2.22
2023-03-11T04:45:11.985Z,2.07
2023-03-11T04:47:40.390Z,2.09
2023-03-11T04:50:09.085Z,2.05
2023-03-11T04:52:37.245Z,1.88
2023-03-11T04:55:06.153Z,1.79
2023-03-11T04:57:34.144Z,1.82
2023-03-11T05:00:11.721Z,1.68
2023-03-11T05:02:40.262Z,1.65
2023-03-11T05:05:10.010Z,1.73
2023-03-11T05:07:38.607Z,1.91
2023-03-11T05:10:07.772Z,1.87
2023-03-11T05:12:38.624Z,1.53
2023-03-11T05:15:08.761Z,1.61
2023-03-11T05:17:38.046Z,1.59
2023-03-11T05:20:08.019Z,1.54
2023-03-11T05:22:37.768Z,1.40
2023-03-11T05:25:06.774Z,1.39
2023-03-11T05:27:36.421Z,1.38
2023-03-11T05:30:06.685Z,1.38
2023-03-11T05:32:35.793Z,1.30
2023-03-11T05:35:05.234Z,1.29
2023-03-11T05:37:33.771Z,1.28
2023-03-11T05:40:05.533Z,1.35
2023-03-11T05:42:34.899Z,1.32
2023-03-11T05:45:03.823Z,1.31
2023-03-11T05:47:32.513Z,1.36
2023-03-11T05:50:05.143Z,1.39
2023-03-11T05:52:33.914Z,1.32
2023-03-11T05:55:02.116Z,1.39
2023-03-11T05:57:31.036Z,1.34
2023-03-11T05:59:59.209Z,1.35
2023-03-11T06:02:27.442Z,1.30
2023-03-11T06:04:56.445Z,1.35
2023-03-11T06:07:24.549Z,1.20
2023-03-11T06:09:52.544Z,1.30
2023-03-11T06:12:20.707Z,1.21
2023-03-11T06:15:14.936Z,1.27
2023-03-11T06:17:43.340Z,1.30
2023-03-11T06:20:12.356Z,1.24
2023-03-11T06:22:40.941Z,1.31
2023-03-11T06:25:10.008Z,1.08
2023-03-11T06:27:38.857Z,1.05
2023-03-11T06:30:08.655Z,1.18
2023-03-11T06:32:44.997Z,1.07
2023-03-11T06:35:14.042Z,1.12
2023-03-11T06:37:41.974Z,1.13
2023-03-11T06:40:11.061Z,1.06
2023-03-11T06:42:39.537Z,1.09
2023-03-11T06:45:08.844Z,0.95
2023-03-11T06:47:37.366Z,0.96
2023-03-11T06:50:10.213Z,0.99
2023-03-11T06:52:43.240Z,0.98
2023-03-11T06:55:11.868Z,1.03
2023-03-11T06:57:39.917Z,1.08
2023-03-11T07:00:14.514Z,1.09
2023-03-11T07:02:47.291Z,0.96
2023-03-11T07:05:16.013Z,0.93
2023-03-11T07:07:44.161Z,1.06
2023-03-11T07:10:12.470Z,1.01
2023-03-11T07:12:43.636Z,1.06
2023-03-11T07:15:11.828Z,1.06
2023-03-11T07:17:40.950Z,1.08
2023-03-11T07:20:11.962Z,1.19
2023-03-11T07:22:39.848Z,1.16
2023-03-11T07:25:08.183Z,1.06
2023-03-11T07:27:36.345Z,1.04
2023-03-11T07:30:04.689Z,1.05
2023-03-11T07:32:32.701Z,0.96
2023-03-11T07:35:01.529Z,1.03
2023-03-11T07:37:29.541Z,1.00
2023-03-11T07:39:57.449Z,1.02
2023-03-11T07:42:25.325Z,0.89
2023-03-11T07:44:54.935Z,0.97
2023-03-11T07:47:22.860Z,0.96
2023-03-11T07:49:51.620Z,0.97
2023-03-11T07:52:20.116Z,0.91
2023-03-11T07:54:48.086Z,0.92
2023-03-11T07:57:17.200Z,0.99
2023-03-11T07:59:45.333Z,1.04
2023-03-11T08:02:13.359Z,0.98
2023-03-11T08:04:42.419Z,1.02
2023-03-11T08:07:10.452Z,0.97
2023-03-11T08:09:38.587Z,1.02
2023-03-11T08:12:07.374Z,1.09
2023-03-11T08:14:35.306Z,1.09
2023-03-11T08:17:04.214Z,1.07
2023-03-11T08:19:32.433Z,1.08
2023-03-11T08:22:03.535Z,1.11
2023-03-11T08:24:31.500Z,1.19
2023-03-11T08:26:59.701Z,0.97
2023-03-11T08:29:27.759Z,1.04
2023-03-11T08:31:55.912Z,1.17
2023-03-11T08:34:23.936Z,1.02
2023-03-11T08:36:52.333Z,1.00
2023-03-11T08:39:20.283Z,1.01
2023-03-11T08:41:48.605Z,1.03
2023-03-11T08:44:16.914Z,1.03
2023-03-11T08:46:46.286Z,1.18
2023-03-11T08:49:14.595Z,1.14
2023-03-11T08:51:42.931Z,1.08
2023-03-11T08:54:11.186Z,1.02
2023-03-11T08:56:39.496Z,0.90
2023-03-11T08:59:08.535Z,1.12
2023-03-11T09:01:36.560Z,1.23
2023-03-11T09:04:05.411Z,1.33
2023-03-11T09:06:33.886Z,1.15
2023-03-11T09:09:02.067Z,1.19
2023-03-11T09:11:30.061Z,1.14
2023-03-11T09:13:58.278Z,1.14
2023-03-11T09:16:26.565Z,1.02
2023-03-11T09:18:55.856Z,1.23
2023-03-11T09:21:23.836Z,1.39
2023-03-11T09:23:51.976Z,1.31
2023-03-11T09:26:19.951Z,1.42
2023-03-11T09:28:48.943Z,1.43
2023-03-11T09:31:18.041Z,1.61
2023-03-11T09:33:47.404Z,1.42
2023-03-11T09:36:26.012Z,1.23
2023-03-11T09:38:54.408Z,1.35
2023-03-11T09:41:57.860Z,1.25
2023-03-11T09:44:51.463Z,1.52
2023-03-11T09:48:11.695Z,1.39
2023-03-11T09:51:02.389Z,1.25
2023-03-11T09:53:47.011Z,1.34
2023-03-11T09:56:21.946Z,1.26
2023-03-11T09:58:55.255Z,1.28
2023-03-11T10:01:28.373Z,1.37
2023-03-11T10:04:06.388Z,1.27
2023-03-11T10:06:34.331Z,1.25
2023-03-11T10:09:21.102Z,1.24
2023-03-11T10:12:19.160Z,1.19
2023-03-11T10:15:09.391Z,1.24
2023-03-11T10:18:14.435Z,1.39
2023-03-11T10:21:34.733Z,1.51
2023-03-11T10:24:31.471Z,1.52
2023-03-11T10:27:08.435Z,1.50
2023-03-11T10:30:11.568Z,1.52
2023-03-11T10:32:57.453Z,1.45
2023-03-11T10:35:51.725Z,1.39
2023-03-11T10:38:29.675Z,1.20
2023-03-11T10:41:07.260Z,1.21
2023-03-11T10:44:14.002Z,1.23
2023-03-11T10:46:45.289Z,1.26
2023-03-11T10:49:19.437Z,1.39
2023-03-11T10:51:53.216Z,1.46
2023-03-11T10:54:25.462Z,1.51
2023-03-11T10:57:33.334Z,1.30
2023-03-11T11:00:17.109Z,1.58
2023-03-11T11:02:58.111Z,1.67
2023-03-11T11:05:36.906Z,1.70
2023-03-11T11:08:17.157Z,1.59
2023-03-11T11:11:01.181Z,1.52
2023-03-11T11:13:35.366Z,1.67
2023-03-11T11:16:17.261Z,1.84
2023-03-11T11:18:54.265Z,1.78
2023-03-11T11:21:37.753Z,1.78
2023-03-11T11:24:22.984Z,1.83
2023-03-11T11:27:18.051Z,1.94
2023-03-11T11:29:50.286Z,1.91
2023-03-11T11:32:24.341Z,1.96
2023-03-11T11:35:05.115Z,1.93
2023-03-11T11:37:41.712Z,1.89
2023-03-11T11:40:17.018Z,1.75
2023-03-11T11:42:56.774Z,1.64
2023-03-11T11:45:27.682Z,1.69
2023-03-11T11:48:01.133Z,1.58
2023-03-11T11:50:36.116Z,1.56
2023-03-11T11:53:15.903Z,1.68
2023-03-11T11:55:55.081Z,1.51
2023-03-11T11:58:23.054Z,1.44
2023-03-11T12:01:14.938Z,1.48
2023-03-11T12:04:17.210Z,1.53
2023-03-11T12:07:15.767Z,1.62
2023-03-11T12:10:28.413Z,1.44
2023-03-11T12:13:30.428Z,1.50
2023-03-11T12:16:31.489Z,1.66
2023-03-11T12:19:13.678Z,1.62
2023-03-11T12:22:09.811Z,1.70
2023-03-11T12:25:05.331Z,1.81
2023-03-11T12:27:45.491Z,1.63
2023-03-11T12:30:21.277Z,1.65
2023-03-11T12:32:56.828Z,1.67
2023-03-11T12:35:35.518Z,1.69
2023-03-11T12:38:18.790Z,1.76
2023-03-11T12:41:05.444Z,1.83
2023-03-11T12:43:42.508Z,1.75
2023-03-11T12:46:14.183Z,2.10
2023-03-11T12:48:50.809Z,2.18
2023-03-11T12:51:40.058Z,2.25
2023-03-11T12:54:34.547Z,2.68
2023-03-11T12:57:17.810Z,2.83
2023-03-11T13:00:22.806Z,2.72
2023-03-11T13:03:01.617Z,2.69
2023-03-11T13:05:49.303Z,2.00
2023-03-11T13:08:42.208Z,1.98
2023-03-11T13:11:33.781Z,1.93
2023-03-11T13:14:30.721Z,1.91
2023-03-11T13:17:30.699Z,1.97
2023-03-11T13:19:59.416Z,2.01
2023-03-11T13:22:53.360Z,1.77
2023-03-11T13:25:33.279Z,1.93
2023-03-11T13:28:26.647Z,2.08
2023-03-11T13:31:18.039Z,1.91
2023-03-11T13:33:52.727Z,1.90
2023-03-11T13:36:51.739Z,1.92
2023-03-11T13:39:47.539Z,2.11
2023-03-11T13:42:53.237Z,2.87
2023-03-11T13:45:35.578Z,2.76
2023-03-11T13:48:42.223Z,2.47
2023-03-11T13:51:45.542Z,2.46
2023-03-11T13:54:24.010Z,2.25
2023-03-11T13:56:58.336Z,2.22
2023-03-11T13:59:29.514Z,2.10
2023-03-11T14:02:04.429Z,2.26
2023-03-11T14:04:37.325Z,2.56
2023-03-11T14:07:22.720Z,2.92
2023-03-11T14:09:51.016Z,3.73
2023-03-11T14:12:19.241Z,3.84
2023-03-11T14:15:01.010Z,4.21
2023-03-11T14:17:28.912Z,3.51
2023-03-11T14:20:12.124Z,4.51
2023-03-11T14:22:40.243Z,5.04
2023-03-11T14:25:17.803Z,4.24
2023-03-11T14:28:00.785Z,4.42
2023-03-11T14:30:32.617Z,3.52
2023-03-11T14:33:16.094Z,3.12
2023-03-11T14:35:58.141Z,3.20
2023-03-11T14:38:30.051Z,3.51
2023-03-11T14:41:06.846Z,3.09
2023-03-11T14:43:44.315Z,3.19
2023-03-11T14:46:25.157Z,3.51
2023-03-11T14:48:56.258Z,3.74
2023-03-11T14:51:31.313Z,4.38
2023-03-11T14:54:24.403Z,4.19
2023-03-11T14:57:37.194Z,3.31
2023-03-11T15:00:14.070Z,3.07
2023-03-11T15:03:30.956Z,3.38
2023-03-11T15:06:28.914Z,3.30
2023-03-11T15:09:02.921Z,3.32
2023-03-11T15:11:32.543Z,3.33
2023-03-11T15:14:26.059Z,3.19
2023-03-11T15:16:56.147Z,3.06
2023-03-11T15:19:34.541Z,3.10
2023-03-11T15:22:21.980Z,3.19
2023-03-11T15:25:02.728Z,3.18
2023-03-11T15:27:37.620Z,3.10
2023-03-11T15:30:31.108Z,2.78
2023-03-11T15:32:59.157Z,2.83
2023-03-11T15:35:31.460Z,2.69
2023-03-11T15:38:25.217Z,2.81
2023-03-11T15:41:03.780Z,2.81
2023-03-11T15:43:48.300Z,2.84
2023-03-11T15:46:18.503Z,2.88
2023-03-11T15:48:46.893Z,2.95
2023-03-11T15:51:20.903Z,3.27
2023-03-11T15:53:48.776Z,3.45
2023-03-11T15:56:24.865Z,3.71
2023-03-11T15:58:52.783Z,3.84
2023-03-11T16:01:23.755Z,2.99
2023-03-11T16:03:51.863Z,2.74
2023-03-11T16:06:20.161Z,2.62
2023-03-11T16:08:49.022Z,2.58
2023-03-11T16:11:18.761Z,2.49
2023-03-11T16:13:46.790Z,2.45
2023-03-11T16:16:18.818Z,2.37
2023-03-11T16:18:46.760Z,2.50
2023-03-11T16:21:19.575Z,2.54
2023-03-11T16:23:51.904Z,2.47
2023-03-11T16:26:25.365Z,2.41
2023-03-11T16:28:53.400Z,2.41
2023-03-11T16:31:21.466Z,2.30
2023-03-11T16:33:50.175Z,2.24
2023-03-11T16:36:18.195Z,2.15
2023-03-11T16:38:50.555Z,2.17
2023-03-11T16:41:18.620Z,2.07
2023-03-11T16:43:46.928Z,2.03
2023-03-11T16:46:15.271Z,2.02
2023-03-11T16:48:43.254Z,1.95
2023-03-11T16:51:13.330Z,1.94
2023-03-11T16:53:41.642Z,1.89
2023-03-11T16:56:10.806Z,1.87
2023-03-11T16:58:38.835Z,1.87
2023-03-11T17:01:06.955Z,1.84
2023-03-11T17:03:42.584Z,1.75
2023-03-11T17:06:11.043Z,1.71
2023-03-11T17:08:39.082Z,1.72
2023-03-11T17:11:16.121Z,1.66
2023-03-11T17:13:44.200Z,1.63
2023-03-11T17:16:13.172Z,1.62
2023-03-11T17:18:44.318Z,1.61
2023-03-11T17:21:15.351Z,1.53
2023-03-11T17:23:46.642Z,1.56
2023-03-11T17:26:17.342Z,1.53
2023-03-11T17:28:45.308Z,1.51
2023-03-11T17:31:17.326Z,1.52
2023-03-11T17:33:45.856Z,1.45
2023-03-11T17:36:17.716Z,1.49
2023-03-11T17:38:47.300Z,1.44
2023-03-11T17:41:17.496Z,1.48
2023-03-11T17:43:46.606Z,1.53
2023-03-11T17:46:19.420Z,1.43
2023-03-11T17:48:48.581Z,1.48
2023-03-11T17:51:21.566Z,1.48
2023-03-11T17:53:50.091Z,1.45
2023-03-11T17:56:20.416Z,1.42
2023-03-11T17:58:50.206Z,1.46
2023-03-11T18:01:27.450Z,1.47
2023-03-11T18:03:55.870Z,1.49
2023-03-11T18:06:24.946Z,1.52
2023-03-11T18:08:55.586Z,1.56
2023-03-11T18:11:28.083Z,1.56
2023-03-11T18:13:56.639Z,1.58
2023-03-11T18:16:28.821Z,1.60
2023-03-11T18:18:57.510Z,1.60
2023-03-11T18:21:29.762Z,1.56
2023-03-11T18:24:00.607Z,1.53
2023-03-11T18:26:30.778Z,1.53
2023-03-11T18:29:00.137Z,1.55
2023-03-11T18:31:30.568Z,1.56
2023-03-11T18:34:03.285Z,1.54
2023-03-11T18:36:37.637Z,1.51
2023-03-11T18:39:07.262Z,1.49
2023-03-11T18:41:35.497Z,1.47
2023-03-11T18:44:05.014Z,1.47
2023-03-11T18:46:33.359Z,1.49
2023-03-11T18:49:03.595Z,1.43
2023-03-11T18:51:33.180Z,1.32
2023-03-11T18:54:01.925Z,1.33
2023-03-11T18:56:32.993Z,1.29
2023-03-11T18:59:01.363Z,1.21
2023-03-11T19:01:29.589Z,1.22
2023-03-11T19:04:00.264Z,1.20
2023-03-11T19:06:29.365Z,1.15
2023-03-11T19:08:57.931Z,1.12
2023-03-11T19:11:26.618Z,1.06
2023-03-11T19:13:55.114Z,1.04
2023-03-11T19:16:25.938Z,1.02
2023-03-11T19:18:55.415Z,1.03
2023-03-11T19:21:23.802Z,1.05
2023-03-11T19:23:54.954Z,1.04
2023-03-11T19:26:41.497Z,0.98
2023-03-11T19:29:13.459Z,0.96
2023-03-11T19:31:43.534Z,0.97
2023-03-11T19:34:11.891Z,0.99
2023-03-11T19:36:40.009Z,0.98
2023-03-11T19:39:08.323Z,0.91
2023-03-11T19:41:36.332Z,0.98
2023-03-11T19:44:04.549Z,0.95
2023-03-11T19:46:34.898Z,0.95
2023-03-11T19:49:03.974Z,0.89
2023-03-11T19:51:46.352Z,0.90
2023-03-11T19:54:17.017Z,0.84
2023-03-11T19:56:45.821Z,0.77
2023-03-11T19:59:14.790Z,0.79
2023-03-11T20:01:43.418Z,0.79
2023-03-11T20:04:11.449Z,0.78
2023-03-11T20:06:39.468Z,0.76
2023-03-11T20:09:07.670Z,0.78
2023-03-11T20:11:40.576Z,0.77
2023-03-11T20:14:10.014Z,0.81
2023-03-11T20:16:38.270Z,0.76
2023-03-11T20:19:08.061Z,0.74
2023-03-11T20:21:40.035Z,0.80
2023-03-11T20:24:09.712Z,0.78
2023-03-11T20:26:38.650Z,0.74
2023-03-11T20:29:07.265Z,0.77
2023-03-11T20:31:36.460Z,0.71
2023-03-11T20:34:04.902Z,0.71
2023-03-11T20:36:34.242Z,0.72
2023-03-11T20:39:03.892Z,0.76
2023-03-11T20:41:38.672Z,0.76
2023-03-11T20:44:08.783Z,0.69
2023-03-11T20:46:36.830Z,0.69
2023-03-11T20:49:05.503Z,0.76
2023-03-11T20:51:33.576Z,0.75
2023-03-11T20:54:01.527Z,0.70
2023-03-11T20:56:29.675Z,0.66
2023-03-11T20:58:59.274Z,0.72
2023-03-11T21:01:30.611Z,0.61
2023-03-11T21:04:03.110Z,0.61
2023-03-11T21:06:37.110Z,0.71
2023-03-11T21:09:11.646Z,0.68
2023-03-11T21:11:42.851Z,0.67
2023-03-11T21:14:15.560Z,0.68
2023-03-11T21:16:45.326Z,0.69
2023-03-11T21:19:13.984Z,0.70
2023-03-11T21:21:44.660Z,0.75
2023-03-11T21:24:12.806Z,0.71
2023-03-11T21:26:41.547Z,0.74
2023-03-11T21:29:10.081Z,0.72
2023-03-11T21:31:39.149Z,0.72
2023-03-11T21:34:12.032Z,0.70
2023-03-11T21:36:40.274Z,0.71
2023-03-11T21:39:08.409Z,0.68
2023-03-11T21:41:37.011Z,0.69
2023-03-11T21:44:05.185Z,0.69
2023-03-11T21:46:33.554Z,0.74
2023-03-11T21:49:02.626Z,0.69
2023-03-11T21:51:30.949Z,0.65
2023-03-11T21:53:59.411Z,0.67
2023-03-11T21:56:28.737Z,0.69
2023-03-11T21:58:57.097Z,0.65
2023-03-11T22:01:27.386Z,0.64
2023-03-11T22:03:57.115Z,0.64
2023-03-11T22:06:25.727Z,0.67
2023-03-11T22:09:20.411Z,0.66
2023-03-11T22:11:53.628Z,0.67
2023-03-11T22:14:23.066Z,0.65
2023-03-11T22:16:51.817Z,0.65
2023-03-11T22:19:20.177Z,0.74
2023-03-11T22:21:49.010Z,0.72
2023-03-11T22:24:17.136Z,0.75
2023-03-11T22:26:45.041Z,0.69
2023-03-11T22:29:13.779Z,0.74
2023-03-11T22:31:42.002Z,0.75
2023-03-11T22:34:09.946Z,0.79
2023-03-11T22:36:37.880Z,0.81
2023-03-11T22:39:06.041Z,0.74
2023-03-11T22:41:34.295Z,0.81
2023-03-11T22:44:02.211Z,0.84
2023-03-11T22:46:30.164Z,0.85
2023-03-11T22:48:59.097Z,0.84
2023-03-11T22:51:27.916Z,0.83
2023-03-11T22:53:55.945Z,0.81
2023-03-11T22:56:23.994Z,0.81
2023-03-11T22:58:52.481Z,0.74
2023-03-11T23:01:20.372Z,0.70
2023-03-11T23:03:48.342Z,0.72
2023-03-11T23:06:19.961Z,0.74
2023-03-11T23:08:48.770Z,0.71
2023-03-11T23:11:21.516Z,0.70
2023-03-11T23:13:50.390Z,0.67
2023-03-11T23:16:24.182Z,0.62
2023-03-11T23:18:54.964Z,0.62
2023-03-11T23:21:27.524Z,0.62
2023-03-11T23:23:56.588Z,0.63
2023-03-11T23:26:24.485Z,0.63
2023-03-11T23:28:53.779Z,0.60
2023-03-11T23:31:25.151Z,0.62
2023-03-11T23:33:53.624Z,0.63
2023-03-11T23:36:26.659Z,0.58
2023-03-11T23:38:54.934Z,0.50
2023-03-11T23:41:23.680Z,0.51
2023-03-11T23:43:51.742Z,0.47
2023-03-11T23:46:19.844Z,0.39
2023-03-11T23:48:48.271Z,0.49
2023-03-11T23:51:16.304Z,0.54
2023-03-11T23:53:45.240Z,0.54
2023-03-11T23:56:17.551Z,0.45
2023-03-11T23:58:46.964Z,0.48
